Portada
METAR-TAF:

METAR-TAF

Aeroports :

Zhengzhou, Xina

latitud: 34-43N, longitud: 113-39E, altitud: 111 m

Observació

L'informe es va fer fa 46 minuts, a les 19:00 UTC
Vent 2 kt amb direcció variable
Temperatura 4°C
Humitat 65%
Pressió 1024 hPa
Visibilitat 10 km o més
sense núvols per sota de 1500 mi sense presència de cumulonimbus.

METAR: ZHCC 211900Z VRB01MPS CAVOK 04/M02 Q1024 NOSIG

Hora: 03:46 (19:46 UTC)

Pronòstic

L'informe es va fer fa 4 hores i 43 minuts, a les 15:03 UTC
Pronòstic vàlid del 21 a les 18 UTC al 22 a les 18 UTC
Vent 6 kt del Sud
Visibilitat: 7000 m

TAF: ZHCC 211503Z 2118/2218 18003MPS 7000 NSC TX16/2207Z TN03/2122Z

Observacions i pronòstics meteorològics de més de 4000 aeroports (METAR i TAF).

Les estacions disponibles són els punts grocs i vermells al mapa.

Posi el ratolí al punt desitjat per veure el nom de l'estació.

Feu clic per veure les observacions i els pronòstics meteorològics.

Per canviar el mapa: feu clic els botons verds amb una creu de color negre per apropar; al botó verd amb un guió per allunyar la imatge; o en les fletxes verdes per a mapes adjacents.


METAR-TAF: